sensor_id;sensor_type;location;lat;lon;timestamp;P1;durP1;ratioP1;P2;durP2;ratioP2
11348;SDS011;5729;43.570;27.826;2023-07-08T00:00:21;12.88;;;4.75;;
11348;SDS011;5729;43.570;27.826;2023-07-08T00:02:48;5.30;;;4.63;;
11348;SDS011;5729;43.570;27.826;2023-07-08T00:05:14;6.03;;;4.40;;
11348;SDS011;5729;43.570;27.826;2023-07-08T00:07:41;8.43;;;4.72;;
11348;SDS011;5729;43.570;27.826;2023-07-08T00:12:39;7.53;;;4.93;;
11348;SDS011;5729;43.570;27.826;2023-07-08T00:15:05;10.00;;;4.68;;
11348;SDS011;5729;43.570;27.826;2023-07-08T00:17:31;5.20;;;4.38;;
11348;SDS011;5729;43.570;27.826;2023-07-08T00:19:56;8.15;;;4.78;;
11348;SDS011;5729;43.570;27.826;2023-07-08T00:22:21;8.13;;;4.43;;
11348;SDS011;5729;43.570;27.826;2023-07-08T00:24:50;6.70;;;4.30;;
11348;SDS011;5729;43.570;27.826;2023-07-08T00:27:16;7.93;;;4.50;;
11348;SDS011;5729;43.570;27.826;2023-07-08T00:29:41;7.03;;;4.88;;
11348;SDS011;5729;43.570;27.826;2023-07-08T00:32:11;7.03;;;4.78;;
11348;SDS011;5729;43.570;27.826;2023-07-08T00:34:38;5.93;;;5.00;;
11348;SDS011;5729;43.570;27.826;2023-07-08T00:37:03;13.52;;;5.15;;
11348;SDS011;5729;43.570;27.826;2023-07-08T00:39:30;6.32;;;4.15;;
11348;SDS011;5729;43.570;27.826;2023-07-08T00:42:00;8.07;;;4.30;;
11348;SDS011;5729;43.570;27.826;2023-07-08T00:44:26;6.55;;;4.55;;
11348;SDS011;5729;43.570;27.826;2023-07-08T00:55:04;5.82;;;5.10;;
11348;SDS011;5729;43.570;27.826;2023-07-08T00:57:34;5.93;;;4.78;;
11348;SDS011;5729;43.570;27.826;2023-07-08T01:00:04;6.57;;;4.38;;
11348;SDS011;5729;43.570;27.826;2023-07-08T01:02:35;8.40;;;4.28;;
11348;SDS011;5729;43.570;27.826;2023-07-08T01:07:32;5.10;;;4.40;;
11348;SDS011;5729;43.570;27.826;2023-07-08T01:10:02;5.30;;;4.47;;
11348;SDS011;5729;43.570;27.826;2023-07-08T01:12:39;4.88;;;4.38;;
11348;SDS011;5729;43.570;27.826;2023-07-08T01:15:07;8.32;;;4.53;;
11348;SDS011;5729;43.570;27.826;2023-07-08T01:17:35;5.78;;;4.72;;
11348;SDS011;5729;43.570;27.826;2023-07-08T01:20:02;6.20;;;4.32;;
11348;SDS011;5729;43.570;27.826;2023-07-08T01:22:36;7.47;;;4.70;;
11348;SDS011;5729;43.570;27.826;2023-07-08T01:25:02;11.30;;;4.50;;
11348;SDS011;5729;43.570;27.826;2023-07-08T01:27:34;6.18;;;4.28;;
11348;SDS011;5729;43.570;27.826;2023-07-08T01:30:02;5.05;;;4.40;;
11348;SDS011;5729;43.570;27.826;2023-07-08T01:32:29;7.25;;;4.85;;
11348;SDS011;5729;43.570;27.826;2023-07-08T01:35:00;6.03;;;4.53;;
11348;SDS011;5729;43.570;27.826;2023-07-08T01:37:31;6.38;;;5.38;;
11348;SDS011;5729;43.570;27.826;2023-07-08T01:40:17;8.27;;;4.63;;
11348;SDS011;5729;43.570;27.826;2023-07-08T01:42:47;5.80;;;4.18;;
11348;SDS011;5729;43.570;27.826;2023-07-08T01:45:13;9.55;;;4.60;;
11348;SDS011;5729;43.570;27.826;2023-07-08T01:47:41;5.32;;;4.35;;
11348;SDS011;5729;43.570;27.826;2023-07-08T01:50:14;5.68;;;4.40;;
11348;SDS011;5729;43.570;27.826;2023-07-08T01:52:40;9.90;;;4.57;;
11348;SDS011;5729;43.570;27.826;2023-07-08T01:55:05;5.78;;;4.88;;
11348;SDS011;5729;43.570;27.826;2023-07-08T01:57:31;8.93;;;4.63;;
11348;SDS011;5729;43.570;27.826;2023-07-08T01:59:57;6.53;;;4.85;;
11348;SDS011;5729;43.570;27.826;2023-07-08T02:02:22;7.47;;;4.38;;
11348;SDS011;5729;43.570;27.826;2023-07-08T02:04:49;8.38;;;4.28;;
11348;SDS011;5729;43.570;27.826;2023-07-08T02:07:15;6.68;;;4.55;;
11348;SDS011;5729;43.570;27.826;2023-07-08T02:09:40;8.13;;;4.40;;
11348;SDS011;5729;43.570;27.826;2023-07-08T02:12:06;11.38;;;5.60;;
11348;SDS011;5729;43.570;27.826;2023-07-08T02:14:32;5.10;;;4.60;;
11348;SDS011;5729;43.570;27.826;2023-07-08T02:16:57;8.63;;;4.97;;
11348;SDS011;5729;43.570;27.826;2023-07-08T02:19:23;7.20;;;4.75;;
11348;SDS011;5729;43.570;27.826;2023-07-08T02:21:49;4.90;;;4.15;;
11348;SDS011;5729;43.570;27.826;2023-07-08T02:24:16;6.40;;;4.22;;
11348;SDS011;5729;43.570;27.826;2023-07-08T02:26:42;8.70;;;4.80;;
11348;SDS011;5729;43.570;27.826;2023-07-08T02:29:08;7.72;;;4.63;;
11348;SDS011;5729;43.570;27.826;2023-07-08T02:31:33;6.05;;;4.85;;
11348;SDS011;5729;43.570;27.826;2023-07-08T02:33:59;6.03;;;4.90;;
11348;SDS011;5729;43.570;27.826;2023-07-08T02:36:26;12.23;;;4.28;;
11348;SDS011;5729;43.570;27.826;2023-07-08T02:38:52;5.75;;;4.90;;
11348;SDS011;5729;43.570;27.826;2023-07-08T02:41:17;7.13;;;4.43;;
11348;SDS011;5729;43.570;27.826;2023-07-08T02:43:43;8.20;;;5.22;;
11348;SDS011;5729;43.570;27.826;2023-07-08T02:46:08;8.63;;;4.90;;
11348;SDS011;5729;43.570;27.826;2023-07-08T02:48:33;6.22;;;4.50;;
11348;SDS011;5729;43.570;27.826;2023-07-08T02:50:59;6.03;;;4.43;;
11348;SDS011;5729;43.570;27.826;2023-07-08T02:53:26;6.57;;;4.07;;
11348;SDS011;5729;43.570;27.826;2023-07-08T02:55:51;4.25;;;3.85;;
11348;SDS011;5729;43.570;27.826;2023-07-08T02:58:17;6.25;;;4.55;;
11348;SDS011;5729;43.570;27.826;2023-07-08T03:00:42;3.97;;;3.53;;
11348;SDS011;5729;43.570;27.826;2023-07-08T03:03:07;6.82;;;3.95;;
11348;SDS011;5729;43.570;27.826;2023-07-08T03:05:33;7.57;;;3.88;;
11348;SDS011;5729;43.570;27.826;2023-07-08T03:07:59;4.80;;;4.03;;
11348;SDS011;5729;43.570;27.826;2023-07-08T03:10:24;8.10;;;4.20;;
11348;SDS011;5729;43.570;27.826;2023-07-08T03:12:50;5.50;;;4.22;;
11348;SDS011;5729;43.570;27.826;2023-07-08T03:15:15;6.03;;;4.85;;
11348;SDS011;5729;43.570;27.826;2023-07-08T03:17:41;5.88;;;4.22;;
11348;SDS011;5729;43.570;27.826;2023-07-08T03:20:07;6.18;;;4.25;;
11348;SDS011;5729;43.570;27.826;2023-07-08T03:22:33;9.80;;;4.00;;
11348;SDS011;5729;43.570;27.826;2023-07-08T03:24:58;10.48;;;4.32;;
11348;SDS011;5729;43.570;27.826;2023-07-08T03:27:24;6.38;;;4.30;;
11348;SDS011;5729;43.570;27.826;2023-07-08T03:29:49;4.32;;;3.83;;
11348;SDS011;5729;43.570;27.826;2023-07-08T03:32:15;8.38;;;4.40;;
11348;SDS011;5729;43.570;27.826;2023-07-08T03:34:40;6.18;;;4.35;;
11348;SDS011;5729;43.570;27.826;2023-07-08T03:37:08;8.57;;;4.30;;
11348;SDS011;5729;43.570;27.826;2023-07-08T03:39:34;5.78;;;4.35;;
11348;SDS011;5729;43.570;27.826;2023-07-08T03:41:59;6.43;;;4.45;;
11348;SDS011;5729;43.570;27.826;2023-07-08T03:44:25;7.57;;;5.00;;
11348;SDS011;5729;43.570;27.826;2023-07-08T03:46:51;9.25;;;4.20;;
11348;SDS011;5729;43.570;27.826;2023-07-08T03:49:17;4.90;;;4.40;;
11348;SDS011;5729;43.570;27.826;2023-07-08T03:51:47;9.52;;;5.05;;
11348;SDS011;5729;43.570;27.826;2023-07-08T03:54:14;7.10;;;5.03;;
11348;SDS011;5729;43.570;27.826;2023-07-08T03:56:40;6.93;;;5.00;;
11348;SDS011;5729;43.570;27.826;2023-07-08T03:59:06;5.10;;;4.50;;
11348;SDS011;5729;43.570;27.826;2023-07-08T04:01:32;4.40;;;4.00;;
11348;SDS011;5729;43.570;27.826;2023-07-08T04:03:58;5.88;;;4.28;;
11348;SDS011;5729;43.570;27.826;2023-07-08T04:06:25;6.72;;;4.80;;
11348;SDS011;5729;43.570;27.826;2023-07-08T04:08:51;9.40;;;4.72;;
11348;SDS011;5729;43.570;27.826;2023-07-08T04:11:21;5.60;;;4.35;;
11348;SDS011;5729;43.570;27.826;2023-07-08T04:13:47;10.02;;;4.53;;
11348;SDS011;5729;43.570;27.826;2023-07-08T04:16:18;6.68;;;5.00;;
11348;SDS011;5729;43.570;27.826;2023-07-08T04:18:48;7.97;;;4.78;;
11348;SDS011;5729;43.570;27.826;2023-07-08T04:21:16;5.93;;;5.03;;
11348;SDS011;5729;43.570;27.826;2023-07-08T04:23:43;5.47;;;4.63;;
11348;SDS011;5729;43.570;27.826;2023-07-08T04:26:09;6.75;;;4.90;;
11348;SDS011;5729;43.570;27.826;2023-07-08T04:28:35;6.95;;;4.70;;
11348;SDS011;5729;43.570;27.826;2023-07-08T04:31:00;7.03;;;5.20;;
11348;SDS011;5729;43.570;27.826;2023-07-08T04:33:27;5.75;;;4.70;;
11348;SDS011;5729;43.570;27.826;2023-07-08T04:35:52;5.53;;;4.78;;
11348;SDS011;5729;43.570;27.826;2023-07-08T04:38:20;7.95;;;5.13;;
11348;SDS011;5729;43.570;27.826;2023-07-08T04:40:47;9.50;;;5.72;;
11348;SDS011;5729;43.570;27.826;2023-07-08T04:43:14;6.53;;;5.00;;
11348;SDS011;5729;43.570;27.826;2023-07-08T04:45:40;7.57;;;5.13;;
11348;SDS011;5729;43.570;27.826;2023-07-08T04:48:11;8.00;;;5.07;;
11348;SDS011;5729;43.570;27.826;2023-07-08T04:50:43;5.93;;;4.80;;
11348;SDS011;5729;43.570;27.826;2023-07-08T04:53:09;10.18;;;5.45;;
11348;SDS011;5729;43.570;27.826;2023-07-08T04:55:43;11.48;;;4.88;;
11348;SDS011;5729;43.570;27.826;2023-07-08T04:58:11;8.65;;;5.35;;
11348;SDS011;5729;43.570;27.826;2023-07-08T05:00:37;6.53;;;4.85;;
11348;SDS011;5729;43.570;27.826;2023-07-08T05:03:02;6.43;;;4.90;;
11348;SDS011;5729;43.570;27.826;2023-07-08T05:05:28;8.15;;;4.80;;
11348;SDS011;5729;43.570;27.826;2023-07-08T05:07:53;9.40;;;5.20;;
11348;SDS011;5729;43.570;27.826;2023-07-08T05:10:19;7.25;;;5.47;;
11348;SDS011;5729;43.570;27.826;2023-07-08T05:12:45;8.73;;;4.82;;
11348;SDS011;5729;43.570;27.826;2023-07-08T05:15:11;8.38;;;4.65;;
11348;SDS011;5729;43.570;27.826;2023-07-08T05:17:37;9.63;;;4.90;;
11348;SDS011;5729;43.570;27.826;2023-07-08T05:20:04;9.13;;;4.40;;
11348;SDS011;5729;43.570;27.826;2023-07-08T05:22:32;6.45;;;4.80;;
11348;SDS011;5729;43.570;27.826;2023-07-08T05:24:58;7.53;;;4.80;;
11348;SDS011;5729;43.570;27.826;2023-07-08T05:27:23;8.77;;;4.60;;
11348;SDS011;5729;43.570;27.826;2023-07-08T05:29:49;10.38;;;5.07;;
11348;SDS011;5729;43.570;27.826;2023-07-08T05:32:15;7.82;;;5.03;;
11348;SDS011;5729;43.570;27.826;2023-07-08T05:34:41;9.52;;;5.15;;
11348;SDS011;5729;43.570;27.826;2023-07-08T05:37:07;11.90;;;4.85;;
11348;SDS011;5729;43.570;27.826;2023-07-08T05:39:32;6.07;;;4.43;;
11348;SDS011;5729;43.570;27.826;2023-07-08T05:41:58;7.05;;;4.93;;
11348;SDS011;5729;43.570;27.826;2023-07-08T05:44:24;10.00;;;4.63;;
11348;SDS011;5729;43.570;27.826;2023-07-08T05:46:49;6.15;;;4.95;;
11348;SDS011;5729;43.570;27.826;2023-07-08T05:49:15;6.78;;;4.57;;
11348;SDS011;5729;43.570;27.826;2023-07-08T05:51:42;9.95;;;4.70;;
11348;SDS011;5729;43.570;27.826;2023-07-08T05:54:08;8.88;;;6.28;;
11348;SDS011;5729;43.570;27.826;2023-07-08T05:56:34;9.88;;;4.90;;
11348;SDS011;5729;43.570;27.826;2023-07-08T05:58:59;6.90;;;4.65;;
11348;SDS011;5729;43.570;27.826;2023-07-08T06:01:24;5.13;;;4.00;;
11348;SDS011;5729;43.570;27.826;2023-07-08T06:03:50;6.32;;;4.28;;
11348;SDS011;5729;43.570;27.826;2023-07-08T06:06:16;19.85;;;4.85;;
11348;SDS011;5729;43.570;27.826;2023-07-08T06:08:41;7.18;;;5.03;;
11348;SDS011;5729;43.570;27.826;2023-07-08T06:11:07;7.18;;;4.88;;
11348;SDS011;5729;43.570;27.826;2023-07-08T06:13:33;7.85;;;5.22;;
11348;SDS011;5729;43.570;27.826;2023-07-08T06:15:58;7.68;;;4.50;;
11348;SDS011;5729;43.570;27.826;2023-07-08T06:18:24;5.30;;;4.80;;
11348;SDS011;5729;43.570;27.826;2023-07-08T06:20:56;13.88;;;4.30;;
11348;SDS011;5729;43.570;27.826;2023-07-08T06:23:23;9.30;;;4.63;;
11348;SDS011;5729;43.570;27.826;2023-07-08T06:25:49;8.52;;;4.28;;
11348;SDS011;5729;43.570;27.826;2023-07-08T06:28:15;9.90;;;4.78;;
11348;SDS011;5729;43.570;27.826;2023-07-08T06:30:40;8.27;;;5.07;;
11348;SDS011;5729;43.570;27.826;2023-07-08T06:33:06;6.18;;;4.55;;
11348;SDS011;5729;43.570;27.826;2023-07-08T06:35:31;6.32;;;4.30;;
11348;SDS011;5729;43.570;27.826;2023-07-08T06:37:57;13.75;;;5.00;;
11348;SDS011;5729;43.570;27.826;2023-07-08T06:40:23;10.43;;;4.78;;
11348;SDS011;5729;43.570;27.826;2023-07-08T06:42:49;8.48;;;4.47;;
11348;SDS011;5729;43.570;27.826;2023-07-08T06:45:14;8.70;;;4.82;;
11348;SDS011;5729;43.570;27.826;2023-07-08T06:47:40;5.93;;;4.75;;
11348;SDS011;5729;43.570;27.826;2023-07-08T06:50:05;10.95;;;4.95;;
11348;SDS011;5729;43.570;27.826;2023-07-08T06:52:32;13.93;;;5.65;;
11348;SDS011;5729;43.570;27.826;2023-07-08T06:55:03;8.00;;;5.05;;
11348;SDS011;5729;43.570;27.826;2023-07-08T06:57:32;7.30;;;5.28;;
11348;SDS011;5729;43.570;27.826;2023-07-08T06:59:58;7.15;;;4.88;;
11348;SDS011;5729;43.570;27.826;2023-07-08T07:02:23;10.65;;;5.03;;
11348;SDS011;5729;43.570;27.826;2023-07-08T07:04:49;8.80;;;5.03;;
11348;SDS011;5729;43.570;27.826;2023-07-08T07:07:14;8.00;;;4.88;;
11348;SDS011;5729;43.570;27.826;2023-07-08T07:09:40;10.82;;;3.90;;
11348;SDS011;5729;43.570;27.826;2023-07-08T07:12:05;6.78;;;3.80;;
11348;SDS011;5729;43.570;27.826;2023-07-08T07:14:31;6.95;;;3.30;;
11348;SDS011;5729;43.570;27.826;2023-07-08T07:16:58;5.13;;;3.20;;
11348;SDS011;5729;43.570;27.826;2023-07-08T07:19:23;7.00;;;3.05;;
11348;SDS011;5729;43.570;27.826;2023-07-08T07:21:49;4.93;;;3.22;;
11348;SDS011;5729;43.570;27.826;2023-07-08T07:24:14;5.35;;;3.53;;
11348;SDS011;5729;43.570;27.826;2023-07-08T07:26:40;8.82;;;3.58;;
11348;SDS011;5729;43.570;27.826;2023-07-08T07:29:05;4.53;;;3.20;;
11348;SDS011;5729;43.570;27.826;2023-07-08T07:31:30;5.25;;;3.53;;
11348;SDS011;5729;43.570;27.826;2023-07-08T07:33:57;4.93;;;3.40;;
11348;SDS011;5729;43.570;27.826;2023-07-08T07:36:23;5.00;;;3.20;;
11348;SDS011;5729;43.570;27.826;2023-07-08T07:38:49;5.90;;;3.50;;
11348;SDS011;5729;43.570;27.826;2023-07-08T07:41:14;5.07;;;3.20;;
11348;SDS011;5729;43.570;27.826;2023-07-08T07:43:40;7.85;;;3.45;;
11348;SDS011;5729;43.570;27.826;2023-07-08T07:46:05;5.40;;;3.55;;
11348;SDS011;5729;43.570;27.826;2023-07-08T07:48:32;4.75;;;4.20;;
11348;SDS011;5729;43.570;27.826;2023-07-08T07:50:58;4.78;;;3.78;;
11348;SDS011;5729;43.570;27.826;2023-07-08T07:53:23;5.45;;;3.60;;
11348;SDS011;5729;43.570;27.826;2023-07-08T07:55:55;6.53;;;3.65;;
11348;SDS011;5729;43.570;27.826;2023-07-08T07:58:21;4.28;;;3.88;;
11348;SDS011;5729;43.570;27.826;2023-07-08T08:00:47;5.00;;;3.63;;
11348;SDS011;5729;43.570;27.826;2023-07-08T08:03:12;5.72;;;3.63;;
11348;SDS011;5729;43.570;27.826;2023-07-08T08:05:37;7.57;;;4.00;;
11348;SDS011;5729;43.570;27.826;2023-07-08T08:08:03;4.10;;;3.53;;
11348;SDS011;5729;43.570;27.826;2023-07-08T08:10:29;4.40;;;3.83;;
11348;SDS011;5729;43.570;27.826;2023-07-08T08:12:55;5.38;;;3.45;;
11348;SDS011;5729;43.570;27.826;2023-07-08T08:15:21;6.40;;;3.75;;
11348;SDS011;5729;43.570;27.826;2023-07-08T08:17:47;4.72;;;3.60;;
11348;SDS011;5729;43.570;27.826;2023-07-08T08:20:14;8.40;;;3.53;;
11348;SDS011;5729;43.570;27.826;2023-07-08T08:22:39;5.45;;;3.63;;
11348;SDS011;5729;43.570;27.826;2023-07-08T08:25:05;8.85;;;3.75;;
11348;SDS011;5729;43.570;27.826;2023-07-08T08:27:31;6.05;;;3.40;;
11348;SDS011;5729;43.570;27.826;2023-07-08T08:29:57;4.20;;;3.30;;
11348;SDS011;5729;43.570;27.826;2023-07-08T08:32:22;14.23;;;3.58;;
11348;SDS011;5729;43.570;27.826;2023-07-08T08:34:48;4.03;;;2.85;;
11348;SDS011;5729;43.570;27.826;2023-07-08T08:37:13;6.50;;;3.83;;
11348;SDS011;5729;43.570;27.826;2023-07-08T08:39:39;3.47;;;3.05;;
11348;SDS011;5729;43.570;27.826;2023-07-08T08:42:07;8.48;;;3.53;;
11348;SDS011;5729;43.570;27.826;2023-07-08T08:44:44;4.10;;;3.17;;
11348;SDS011;5729;43.570;27.826;2023-07-08T08:47:36;12.18;;;3.05;;
11348;SDS011;5729;43.570;27.826;2023-07-08T08:50:11;6.40;;;2.97;;
11348;SDS011;5729;43.570;27.826;2023-07-08T08:52:53;5.57;;;3.30;;
11348;SDS011;5729;43.570;27.826;2023-07-08T08:55:20;7.47;;;3.67;;
11348;SDS011;5729;43.570;27.826;2023-07-08T08:58:11;7.63;;;3.08;;
11348;SDS011;5729;43.570;27.826;2023-07-08T09:00:54;4.05;;;2.95;;
11348;SDS011;5729;43.570;27.826;2023-07-08T09:03:37;4.15;;;3.25;;
11348;SDS011;5729;43.570;27.826;2023-07-08T09:06:23;6.00;;;3.40;;
11348;SDS011;5729;43.570;27.826;2023-07-08T09:08:51;9.15;;;3.42;;
11348;SDS011;5729;43.570;27.826;2023-07-08T09:13:52;7.50;;;4.03;;
11348;SDS011;5729;43.570;27.826;2023-07-08T09:19:05;3.80;;;3.40;;
11348;SDS011;5729;43.570;27.826;2023-07-08T09:24:08;5.38;;;3.42;;
11348;SDS011;5729;43.570;27.826;2023-07-08T09:26:42;9.45;;;3.95;;
11348;SDS011;5729;43.570;27.826;2023-07-08T09:29:11;5.22;;;3.70;;
11348;SDS011;5729;43.570;27.826;2023-07-08T09:31:37;6.28;;;3.40;;
11348;SDS011;5729;43.570;27.826;2023-07-08T09:36:38;7.07;;;3.97;;
11348;SDS011;5729;43.570;27.826;2023-07-08T09:39:09;5.28;;;3.67;;
11348;SDS011;5729;43.570;27.826;2023-07-08T09:41:36;6.97;;;4.10;;
11348;SDS011;5729;43.570;27.826;2023-07-08T09:44:15;8.05;;;4.03;;
11348;SDS011;5729;43.570;27.826;2023-07-08T09:46:41;6.22;;;3.83;;
11348;SDS011;5729;43.570;27.826;2023-07-08T09:49:24;7.28;;;3.47;;
11348;SDS011;5729;43.570;27.826;2023-07-08T09:51:53;6.63;;;3.88;;
11348;SDS011;5729;43.570;27.826;2023-07-08T09:54:20;5.45;;;3.50;;
11348;SDS011;5729;43.570;27.826;2023-07-08T09:59:37;4.72;;;3.05;;
11348;SDS011;5729;43.570;27.826;2023-07-08T10:02:25;4.70;;;3.28;;
11348;SDS011;5729;43.570;27.826;2023-07-08T10:04:55;7.57;;;3.08;;
11348;SDS011;5729;43.570;27.826;2023-07-08T10:07:22;3.65;;;2.90;;
11348;SDS011;5729;43.570;27.826;2023-07-08T10:09:51;6.05;;;3.30;;
11348;SDS011;5729;43.570;27.826;2023-07-08T10:12:21;6.18;;;4.10;;
11348;SDS011;5729;43.570;27.826;2023-07-08T10:14:50;6.45;;;3.50;;
11348;SDS011;5729;43.570;27.826;2023-07-08T10:17:20;4.03;;;2.92;;
11348;SDS011;5729;43.570;27.826;2023-07-08T10:19:46;7.70;;;3.50;;
11348;SDS011;5729;43.570;27.826;2023-07-08T10:22:18;3.72;;;3.33;;
11348;SDS011;5729;43.570;27.826;2023-07-08T10:24:50;6.20;;;3.55;;
11348;SDS011;5729;43.570;27.826;2023-07-08T10:30:03;5.80;;;3.08;;
11348;SDS011;5729;43.570;27.826;2023-07-08T10:39:03;3.33;;;2.90;;
11348;SDS011;5729;43.570;27.826;2023-07-08T10:42:17;5.38;;;3.10;;
11348;SDS011;5729;43.570;27.826;2023-07-08T10:47:47;4.63;;;3.25;;
11348;SDS011;5729;43.570;27.826;2023-07-08T10:50:38;9.18;;;3.22;;
11348;SDS011;5729;43.570;27.826;2023-07-08T10:56:20;5.57;;;3.13;;
11348;SDS011;5729;43.570;27.826;2023-07-08T11:09:59;5.10;;;3.17;;
11348;SDS011;5729;43.570;27.826;2023-07-08T11:12:34;6.53;;;3.42;;
11348;SDS011;5729;43.570;27.826;2023-07-08T11:15:08;5.65;;;3.78;;
11348;SDS011;5729;43.570;27.826;2023-07-08T11:22:42;7.05;;;4.40;;
11348;SDS011;5729;43.570;27.826;2023-07-08T11:25:19;6.82;;;3.58;;
11348;SDS011;5729;43.570;27.826;2023-07-08T11:27:46;10.00;;;3.70;;
11348;SDS011;5729;43.570;27.826;2023-07-08T11:30:17;5.10;;;3.67;;
11348;SDS011;5729;43.570;27.826;2023-07-08T11:32:52;6.43;;;3.22;;
11348;SDS011;5729;43.570;27.826;2023-07-08T11:35:35;5.60;;;3.38;;
11348;SDS011;5729;43.570;27.826;2023-07-08T11:38:05;7.45;;;3.80;;
11348;SDS011;5729;43.570;27.826;2023-07-08T11:40:38;8.48;;;3.38;;
11348;SDS011;5729;43.570;27.826;2023-07-08T11:43:16;10.27;;;3.83;;
11348;SDS011;5729;43.570;27.826;2023-07-08T11:45:42;6.55;;;3.47;;
11348;SDS011;5729;43.570;27.826;2023-07-08T11:48:13;11.32;;;3.60;;
11348;SDS011;5729;43.570;27.826;2023-07-08T11:50:42;5.55;;;3.67;;
11348;SDS011;5729;43.570;27.826;2023-07-08T11:53:34;7.57;;;3.33;;
11348;SDS011;5729;43.570;27.826;2023-07-08T11:58:30;11.80;;;3.05;;
11348;SDS011;5729;43.570;27.826;2023-07-08T12:03:54;7.10;;;3.28;;
11348;SDS011;5729;43.570;27.826;2023-07-08T12:08:53;4.15;;;2.95;;
11348;SDS011;5729;43.570;27.826;2023-07-08T12:11:27;5.93;;;2.90;;
11348;SDS011;5729;43.570;27.826;2023-07-08T12:13:58;5.05;;;3.33;;
11348;SDS011;5729;43.570;27.826;2023-07-08T12:16:26;7.10;;;3.40;;
11348;SDS011;5729;43.570;27.826;2023-07-08T12:18:54;10.50;;;3.63;;
11348;SDS011;5729;43.570;27.826;2023-07-08T12:21:22;8.05;;;2.97;;
11348;SDS011;5729;43.570;27.826;2023-07-08T12:23:51;4.97;;;2.88;;
11348;SDS011;5729;43.570;27.826;2023-07-08T12:26:17;4.78;;;2.97;;
11348;SDS011;5729;43.570;27.826;2023-07-08T12:28:43;4.82;;;3.38;;
11348;SDS011;5729;43.570;27.826;2023-07-08T12:31:16;5.47;;;3.25;;
11348;SDS011;5729;43.570;27.826;2023-07-08T12:33:46;8.23;;;3.10;;
11348;SDS011;5729;43.570;27.826;2023-07-08T12:36:14;5.30;;;2.75;;
11348;SDS011;5729;43.570;27.826;2023-07-08T12:38:44;8.07;;;3.08;;
11348;SDS011;5729;43.570;27.826;2023-07-08T12:41:28;14.88;;;3.20;;
11348;SDS011;5729;43.570;27.826;2023-07-08T12:43:57;5.00;;;2.80;;
11348;SDS011;5729;43.570;27.826;2023-07-08T12:46:23;5.05;;;2.70;;
11348;SDS011;5729;43.570;27.826;2023-07-08T12:48:50;4.63;;;3.00;;
11348;SDS011;5729;43.570;27.826;2023-07-08T12:51:20;6.90;;;3.35;;
11348;SDS011;5729;43.570;27.826;2023-07-08T12:53:49;5.32;;;2.50;;
11348;SDS011;5729;43.570;27.826;2023-07-08T12:56:16;6.15;;;2.80;;
11348;SDS011;5729;43.570;27.826;2023-07-08T12:58:45;10.20;;;2.53;;
11348;SDS011;5729;43.570;27.826;2023-07-08T13:01:18;3.42;;;2.50;;
11348;SDS011;5729;43.570;27.826;2023-07-08T13:03:47;5.72;;;2.40;;
11348;SDS011;5729;43.570;27.826;2023-07-08T13:06:16;3.00;;;2.47;;
11348;SDS011;5729;43.570;27.826;2023-07-08T13:08:45;5.55;;;2.47;;
11348;SDS011;5729;43.570;27.826;2023-07-08T13:11:13;5.78;;;2.17;;
11348;SDS011;5729;43.570;27.826;2023-07-08T13:14:14;9.07;;;2.25;;
11348;SDS011;5729;43.570;27.826;2023-07-08T13:16:34;3.63;;;2.20;;
11348;SDS011;5729;43.570;27.826;2023-07-08T13:19:00;6.35;;;2.60;;
11348;SDS011;5729;43.570;27.826;2023-07-08T13:21:27;4.35;;;2.40;;
11348;SDS011;5729;43.570;27.826;2023-07-08T13:23:55;3.10;;;2.15;;
11348;SDS011;5729;43.570;27.826;2023-07-08T13:26:21;2.83;;;1.90;;
11348;SDS011;5729;43.570;27.826;2023-07-08T13:28:49;5.38;;;2.25;;
11348;SDS011;5729;43.570;27.826;2023-07-08T13:31:16;10.55;;;2.33;;
11348;SDS011;5729;43.570;27.826;2023-07-08T13:33:48;5.07;;;2.60;;
11348;SDS011;5729;43.570;27.826;2023-07-08T13:36:19;7.55;;;2.40;;
11348;SDS011;5729;43.570;27.826;2023-07-08T13:39:00;3.78;;;2.20;;
11348;SDS011;5729;43.570;27.826;2023-07-08T13:41:30;7.22;;;2.40;;
11348;SDS011;5729;43.570;27.826;2023-07-08T13:43:55;9.93;;;2.30;;
11348;SDS011;5729;43.570;27.826;2023-07-08T13:46:33;6.30;;;2.38;;
11348;SDS011;5729;43.570;27.826;2023-07-08T13:49:02;4.20;;;2.10;;
11348;SDS011;5729;43.570;27.826;2023-07-08T13:51:35;7.30;;;2.35;;
11348;SDS011;5729;43.570;27.826;2023-07-08T13:54:09;7.10;;;2.55;;
11348;SDS011;5729;43.570;27.826;2023-07-08T13:56:40;3.30;;;2.47;;
11348;SDS011;5729;43.570;27.826;2023-07-08T13:59:07;6.18;;;2.60;;
11348;SDS011;5729;43.570;27.826;2023-07-08T14:01:40;3.05;;;2.22;;
11348;SDS011;5729;43.570;27.826;2023-07-08T14:04:09;3.33;;;2.50;;
11348;SDS011;5729;43.570;27.826;2023-07-08T14:06:38;6.95;;;2.53;;
11348;SDS011;5729;43.570;27.826;2023-07-08T14:09:14;5.07;;;2.40;;
11348;SDS011;5729;43.570;27.826;2023-07-08T14:11:42;6.15;;;2.60;;
11348;SDS011;5729;43.570;27.826;2023-07-08T14:14:09;3.28;;;2.67;;
11348;SDS011;5729;43.570;27.826;2023-07-08T14:16:36;6.68;;;2.47;;
11348;SDS011;5729;43.570;27.826;2023-07-08T14:19:06;5.03;;;2.33;;
11348;SDS011;5729;43.570;27.826;2023-07-08T14:21:37;10.13;;;2.55;;
11348;SDS011;5729;43.570;27.826;2023-07-08T14:24:08;4.10;;;2.58;;
11348;SDS011;5729;43.570;27.826;2023-07-08T14:26:38;4.95;;;2.15;;
11348;SDS011;5729;43.570;27.826;2023-07-08T14:29:08;2.67;;;2.10;;
11348;SDS011;5729;43.570;27.826;2023-07-08T14:31:34;3.20;;;2.33;;
11348;SDS011;5729;43.570;27.826;2023-07-08T14:34:04;4.22;;;2.30;;
11348;SDS011;5729;43.570;27.826;2023-07-08T14:36:31;4.45;;;2.08;;
11348;SDS011;5729;43.570;27.826;2023-07-08T14:38:57;4.60;;;2.22;;
11348;SDS011;5729;43.570;27.826;2023-07-08T14:58:25;8.10;;;3.00;;
11348;SDS011;5729;43.570;27.826;2023-07-08T15:00:56;2.38;;;2.17;;
11348;SDS011;5729;43.570;27.826;2023-07-08T15:03:24;3.40;;;2.50;;
11348;SDS011;5729;43.570;27.826;2023-07-08T15:05:50;4.53;;;2.30;;
11348;SDS011;5729;43.570;27.826;2023-07-08T15:08:15;7.05;;;2.50;;
11348;SDS011;5729;43.570;27.826;2023-07-08T15:10:44;3.00;;;2.40;;
11348;SDS011;5729;43.570;27.826;2023-07-08T15:13:13;6.25;;;2.25;;
11348;SDS011;5729;43.570;27.826;2023-07-08T15:15:39;7.03;;;2.35;;
11348;SDS011;5729;43.570;27.826;2023-07-08T15:18:11;2.75;;;2.30;;
11348;SDS011;5729;43.570;27.826;2023-07-08T15:20:39;2.55;;;2.20;;
11348;SDS011;5729;43.570;27.826;2023-07-08T15:23:05;3.55;;;2.40;;
11348;SDS011;5729;43.570;27.826;2023-07-08T15:25:31;7.57;;;2.70;;
11348;SDS011;5729;43.570;27.826;2023-07-08T15:27:59;6.82;;;2.40;;
11348;SDS011;5729;43.570;27.826;2023-07-08T15:30:30;4.43;;;2.47;;
11348;SDS011;5729;43.570;27.826;2023-07-08T15:32:56;10.52;;;2.50;;
11348;SDS011;5729;43.570;27.826;2023-07-08T15:35:24;4.35;;;2.63;;
11348;SDS011;5729;43.570;27.826;2023-07-08T15:37:55;3.83;;;2.45;;
11348;SDS011;5729;43.570;27.826;2023-07-08T15:40:21;3.22;;;2.25;;
11348;SDS011;5729;43.570;27.826;2023-07-08T15:42:48;3.35;;;2.30;;
11348;SDS011;5729;43.570;27.826;2023-07-08T15:45:21;7.47;;;3.05;;
11348;SDS011;5729;43.570;27.826;2023-07-08T15:47:49;4.38;;;2.35;;
11348;SDS011;5729;43.570;27.826;2023-07-08T15:50:15;3.83;;;2.90;;
11348;SDS011;5729;43.570;27.826;2023-07-08T15:52:44;6.30;;;2.50;;
11348;SDS011;5729;43.570;27.826;2023-07-08T15:55:10;3.40;;;2.67;;
11348;SDS011;5729;43.570;27.826;2023-07-08T15:57:43;3.92;;;2.47;;
11348;SDS011;5729;43.570;27.826;2023-07-08T16:00:18;5.43;;;2.55;;
11348;SDS011;5729;43.570;27.826;2023-07-08T16:02:59;5.40;;;2.78;;
11348;SDS011;5729;43.570;27.826;2023-07-08T16:05:28;3.70;;;3.15;;
11348;SDS011;5729;43.570;27.826;2023-07-08T16:07:54;3.45;;;2.70;;
11348;SDS011;5729;43.570;27.826;2023-07-08T16:10:20;10.75;;;2.63;;
11348;SDS011;5729;43.570;27.826;2023-07-08T16:12:49;2.63;;;2.25;;
11348;SDS011;5729;43.570;27.826;2023-07-08T16:15:19;2.33;;;2.00;;